createdAt,value
2023-01-12T00:02:19.259Z,38.50
2023-01-12T00:04:46.449Z,46.70
2023-01-12T00:07:13.945Z,36.00
2023-01-12T00:09:40.968Z,38.00
2023-01-12T00:12:09.686Z,38.20
2023-01-12T00:14:37.444Z,40.30
2023-01-12T00:17:04.494Z,40.40
2023-01-12T00:19:31.761Z,36.00
2023-01-12T00:22:00.224Z,36.70
2023-01-12T00:24:31.600Z,23.60
2023-01-12T00:26:59.788Z,30.70
2023-01-12T00:29:27.028Z,31.70
2023-01-12T00:31:54.718Z,26.60
2023-01-12T00:34:21.607Z,34.70
2023-01-12T00:36:48.625Z,22.30
2023-01-12T00:39:15.794Z,36.00
2023-01-12T00:42:01.430Z,25.00
2023-01-12T00:44:46.951Z,23.80
2023-01-12T00:47:14.114Z,30.30
2023-01-12T00:49:43.892Z,24.60
2023-01-12T00:54:52.428Z,27.10
2023-01-12T00:57:19.521Z,25.70
2023-01-12T00:59:46.750Z,31.80
2023-01-12T01:02:13.838Z,28.30
2023-01-12T01:04:40.837Z,29.50
2023-01-12T01:07:07.762Z,30.30
2023-01-12T01:09:34.699Z,24.50
2023-01-12T01:12:01.701Z,25.10
2023-01-12T01:14:28.596Z,24.80
2023-01-12T01:16:55.626Z,30.40
2023-01-12T01:19:23.011Z,38.70
2023-01-12T01:21:50.073Z,28.40
2023-01-12T01:24:17.237Z,32.10
2023-01-12T01:26:44.311Z,23.50
2023-01-12T01:29:11.529Z,28.60
2023-01-12T01:31:38.530Z,23.00
2023-01-12T01:34:05.570Z,26.90
2023-01-12T01:36:32.899Z,26.20
2023-01-12T01:38:59.938Z,28.00
2023-01-12T01:41:29.626Z,32.40
2023-01-12T01:44:01.543Z,28.20
2023-01-12T01:46:48.224Z,27.30
2023-01-12T01:49:24.592Z,27.10
2023-01-12T01:51:53.577Z,23.20
2023-01-12T01:54:20.805Z,26.60
2023-01-12T01:56:47.932Z,30.60
2023-01-12T01:59:19.540Z,27.40
2023-01-12T02:01:46.687Z,27.90
2023-01-12T02:04:14.063Z,25.50
2023-01-12T02:06:41.094Z,24.30
2023-01-12T02:09:18.666Z,27.90
2023-01-12T02:12:05.074Z,24.40
2023-01-12T02:14:52.197Z,25.30
2023-01-12T02:17:50.030Z,28.70
2023-01-12T02:20:40.120Z,26.90
2023-01-12T02:23:22.517Z,27.80
2023-01-12T02:26:27.019Z,29.60
2023-01-12T02:29:06.245Z,41.00
2023-01-12T02:31:52.037Z,21.50
2023-01-12T02:34:24.697Z,20.80
2023-01-12T02:37:10.669Z,27.10
2023-01-12T02:40:09.202Z,27.10
2023-01-12T02:42:47.647Z,28.20
2023-01-12T02:45:33.583Z,29.80
2023-01-12T02:48:05.921Z,29.30
2023-01-12T02:50:52.188Z,24.60
2023-01-12T02:53:28.022Z,25.90
2023-01-12T02:55:54.895Z,30.80
2023-01-12T02:58:22.803Z,29.30
2023-01-12T03:00:51.642Z,23.00
2023-01-12T03:03:19.473Z,28.90
2023-01-12T03:05:47.832Z,26.90
2023-01-12T03:08:21.290Z,26.30
2023-01-12T03:11:06.895Z,25.90
2023-01-12T03:13:36.190Z,28.20
2023-01-12T03:16:03.967Z,34.40
2023-01-12T03:18:39.597Z,31.80
2023-01-12T03:21:09.837Z,32.00
2023-01-12T03:23:43.612Z,35.90
2023-01-12T03:26:11.777Z,34.20
2023-01-12T03:28:39.803Z,32.50
2023-01-12T03:31:11.362Z,33.10
2023-01-12T03:33:39.923Z,27.90
2023-01-12T03:36:17.437Z,35.00
2023-01-12T03:39:02.954Z,30.20
2023-01-12T03:42:08.905Z,33.90
2023-01-12T03:44:42.071Z,26.00
2023-01-12T03:47:12.148Z,29.00
2023-01-12T03:49:48.134Z,27.00
2023-01-12T03:52:15.065Z,25.70
2023-01-12T03:54:41.933Z,25.90
2023-01-12T03:57:09.166Z,22.70
2023-01-12T03:59:36.131Z,25.30
2023-01-12T04:02:03.573Z,34.90
2023-01-12T04:04:30.491Z,32.30
2023-01-12T04:06:57.559Z,32.30
2023-01-12T04:09:26.023Z,23.50
2023-01-12T04:12:11.270Z,25.70
2023-01-12T04:14:47.787Z,21.40
2023-01-12T04:17:15.207Z,23.10
2023-01-12T04:19:42.240Z,22.30
2023-01-12T04:22:29.468Z,29.10
2023-01-12T04:24:56.667Z,32.00
2023-01-12T04:27:23.625Z,22.30
2023-01-12T04:29:50.478Z,23.60
2023-01-12T04:32:17.414Z,21.30
2023-01-12T04:34:45.175Z,23.90
2023-01-12T04:37:12.219Z,27.00
2023-01-12T04:39:39.165Z,28.20
2023-01-12T04:42:26.083Z,29.40
2023-01-12T04:44:53.068Z,39.80
2023-01-12T04:47:20.194Z,26.30
2023-01-12T04:49:47.213Z,25.20
2023-01-12T04:52:14.251Z,29.50
2023-01-12T04:54:41.378Z,28.10
2023-01-12T04:57:08.413Z,28.00
2023-01-12T04:59:35.571Z,26.40
2023-01-12T05:02:02.627Z,25.00
2023-01-12T05:04:29.562Z,30.50
2023-01-12T05:06:56.491Z,34.20
2023-01-12T05:09:42.164Z,32.00
2023-01-12T05:12:09.100Z,30.20
2023-01-12T05:14:36.013Z,26.00
2023-01-12T05:17:03.008Z,30.20
2023-01-12T05:19:29.901Z,28.70
2023-01-12T05:21:56.812Z,28.30
2023-01-12T05:24:23.694Z,32.90
2023-01-12T05:26:50.722Z,31.00
2023-01-12T05:29:17.597Z,26.80
2023-01-12T05:31:44.505Z,30.00
2023-01-12T05:34:11.489Z,29.80
2023-01-12T05:36:38.398Z,25.90
2023-01-12T05:39:05.705Z,30.60
2023-01-12T05:41:32.586Z,25.60
2023-01-12T05:43:59.508Z,26.30
2023-01-12T05:46:28.293Z,27.80
2023-01-12T05:48:55.998Z,22.00
2023-01-12T05:51:23.677Z,22.30
2023-01-12T05:53:50.599Z,23.50
2023-01-12T05:56:28.060Z,22.50
2023-01-12T05:58:56.449Z,25.60
2023-01-12T06:01:23.476Z,28.70
2023-01-12T06:03:55.010Z,26.60
2023-01-12T06:06:22.928Z,26.70
2023-01-12T06:08:52.453Z,22.70
2023-01-12T06:14:06.331Z,28.80
2023-01-12T06:16:33.395Z,24.30
2023-01-12T06:19:01.224Z,28.00
2023-01-12T06:21:28.300Z,25.50
2023-01-12T06:23:55.180Z,28.60
2023-01-12T06:26:22.022Z,28.30
2023-01-12T06:28:48.876Z,28.90
2023-01-12T06:31:15.844Z,27.90
2023-01-12T06:33:42.805Z,22.50
2023-01-12T06:36:10.143Z,28.50
2023-01-12T06:38:40.334Z,28.90
2023-01-12T06:41:30.482Z,29.80
2023-01-12T06:43:57.683Z,42.90
2023-01-12T06:46:26.001Z,32.60
2023-01-12T06:48:55.533Z,32.30
2023-01-12T06:51:22.376Z,28.50
2023-01-12T06:53:49.228Z,34.10
2023-01-12T06:56:16.136Z,33.80
2023-01-12T06:58:43.831Z,40.60
2023-01-12T07:01:10.847Z,38.10
2023-01-12T07:03:37.860Z,29.40
2023-01-12T07:06:04.934Z,27.30
2023-01-12T07:08:32.178Z,32.50
2023-01-12T07:11:08.206Z,32.70
2023-01-12T07:13:35.190Z,44.90
2023-01-12T07:16:02.286Z,32.50
2023-01-12T07:18:30.212Z,31.20
2023-01-12T07:20:57.169Z,36.90
2023-01-12T07:23:24.137Z,30.30
2023-01-12T07:25:51.266Z,41.90
2023-01-12T10:34:08.144Z,54.00
2023-01-12T10:36:36.578Z,46.30
2023-01-12T10:39:04.811Z,46.40
2023-01-12T10:41:35.214Z,52.00
2023-01-12T10:44:16.129Z,48.40
2023-01-12T10:46:43.228Z,48.40
2023-01-12T10:49:23.947Z,48.70
2023-01-12T10:51:58.747Z,54.10
2023-01-12T10:54:28.128Z,55.40
2023-01-12T10:57:25.631Z,54.50
2023-01-12T10:59:54.804Z,57.40
2023-01-12T11:02:24.247Z,64.90
2023-01-12T11:04:52.612Z,51.60
2023-01-12T11:07:26.580Z,56.60
2023-01-12T11:09:57.559Z,56.90
2023-01-12T11:12:31.224Z,53.90
2023-01-12T11:15:03.546Z,59.70
2023-01-12T11:17:52.556Z,65.10
2023-01-12T11:20:48.047Z,61.10
2023-01-12T11:23:28.375Z,64.70
2023-01-12T11:25:55.769Z,60.30
2023-01-12T11:28:29.315Z,59.70
2023-01-12T11:31:08.919Z,60.40
2023-01-12T11:33:43.239Z,54.90
2023-01-12T11:36:15.771Z,58.50
2023-01-12T11:39:00.969Z,57.90
2023-01-12T11:42:04.432Z,69.70
2023-01-12T11:44:34.588Z,65.30
2023-01-12T11:47:13.620Z,61.30
2023-01-12T11:49:40.541Z,64.60
2023-01-12T11:52:09.024Z,65.20
2023-01-12T11:54:36.561Z,76.40
2023-01-12T11:57:09.267Z,86.10
2023-01-12T11:59:51.483Z,75.40
2023-01-12T12:02:30.243Z,71.10
2023-01-12T12:05:06.478Z,82.00
2023-01-12T12:08:02.593Z,68.00
2023-01-12T12:10:32.540Z,71.00
2023-01-12T12:15:47.902Z,83.90
2023-01-12T12:18:23.868Z,83.70
2023-01-12T12:21:00.515Z,91.90
2023-01-12T12:23:53.416Z,89.60
2023-01-12T12:26:31.249Z,84.90
2023-01-12T12:29:37.998Z,90.30
2023-01-12T12:32:38.443Z,111.70
2023-01-12T12:37:58.919Z,106.40
2023-01-12T12:40:56.491Z,104.70
2023-01-12T12:43:49.238Z,118.70
2023-01-12T18:34:19.529Z,43.40
2023-01-12T18:36:46.587Z,41.00
2023-01-12T18:39:18.548Z,45.10
2023-01-12T18:42:04.106Z,39.20
2023-01-12T18:44:33.967Z,32.40
2023-01-12T18:47:20.144Z,36.40
2023-01-12T18:49:49.929Z,30.20
2023-01-12T18:52:55.920Z,43.20
2023-01-12T18:55:23.006Z,33.20
2023-01-12T18:57:51.174Z,31.60
2023-01-12T19:00:18.397Z,30.30
2023-01-12T19:02:45.484Z,40.60
2023-01-12T19:05:18.305Z,46.80
2023-01-12T19:08:00.254Z,33.00
2023-01-12T19:10:28.197Z,40.90
2023-01-12T19:13:15.089Z,37.70
2023-01-12T19:16:00.987Z,35.30
2023-01-12T19:18:28.308Z,32.00
2023-01-12T19:21:15.125Z,32.80
2023-01-12T19:24:00.716Z,40.20
2023-01-12T19:26:46.319Z,30.00
2023-01-12T19:29:13.173Z,33.00
2023-01-12T19:31:40.226Z,30.60
2023-01-12T19:34:07.210Z,32.90
2023-01-12T19:36:34.375Z,34.60
2023-01-12T19:39:05.837Z,34.30
2023-01-12T19:41:52.720Z,31.40
2023-01-12T19:44:38.414Z,29.80
2023-01-12T19:47:05.285Z,28.80
2023-01-12T19:49:32.423Z,33.10
2023-01-12T19:52:05.723Z,34.80
2023-01-12T19:54:36.075Z,61.30
2023-01-12T19:57:02.949Z,50.90
2023-01-12T19:59:29.843Z,40.70
2023-01-12T20:01:56.778Z,36.60
2023-01-12T20:04:23.667Z,36.10
2023-01-12T20:06:53.304Z,41.90
2023-01-12T20:09:20.279Z,31.70
2023-01-12T20:11:52.822Z,29.60
2023-01-12T20:14:20.016Z,33.20
2023-01-12T20:16:47.361Z,37.20
2023-01-12T20:19:14.478Z,31.50
2023-01-12T20:21:41.308Z,37.10
2023-01-12T20:24:08.260Z,42.80
2023-01-12T20:26:35.308Z,26.40
2023-01-12T20:29:11.503Z,41.30
2023-01-12T20:31:38.428Z,36.10
2023-01-12T20:34:05.463Z,34.70
2023-01-12T20:36:32.367Z,37.30
2023-01-12T20:38:59.326Z,32.20
2023-01-12T20:41:29.332Z,39.80
2023-01-12T20:46:23.391Z,36.10
2023-01-12T20:48:50.215Z,60.70
2023-01-12T20:51:17.221Z,40.50
2023-01-12T20:53:44.300Z,39.50
2023-01-12T20:56:11.573Z,54.00
2023-01-12T20:58:38.601Z,53.40
2023-01-12T21:01:10.475Z,59.60
2023-01-12T21:03:37.511Z,47.90
2023-01-12T21:06:09.024Z,46.70
2023-01-12T21:08:37.438Z,50.40
2023-01-12T21:11:04.567Z,41.00
2023-01-12T21:13:31.686Z,46.60
2023-01-12T21:15:59.960Z,35.60
2023-01-12T21:18:27.765Z,31.90
2023-01-12T21:20:54.745Z,33.70
2023-01-12T21:23:21.666Z,41.70
2023-01-12T21:25:50.447Z,31.30
2023-01-12T21:28:18.371Z,49.00
2023-01-12T21:30:45.403Z,34.60
2023-01-12T21:33:15.472Z,47.20
2023-01-12T21:35:44.611Z,34.80
2023-01-12T21:38:11.527Z,40.80
2023-01-12T21:40:38.467Z,52.90
2023-01-12T21:43:08.347Z,45.10
2023-01-12T21:45:39.931Z,43.60
2023-01-12T21:48:07.532Z,42.50
2023-01-12T21:50:34.827Z,34.10
2023-01-12T21:53:02.849Z,44.60
2023-01-12T21:55:30.276Z,41.00
2023-01-12T21:57:57.128Z,36.90
2023-01-12T22:00:24.231Z,45.30
2023-01-12T22:02:51.856Z,39.90
2023-01-12T22:05:19.303Z,49.90
2023-01-12T22:07:47.970Z,43.20
2023-01-12T22:10:22.191Z,40.90
2023-01-12T22:12:55.795Z,45.60
2023-01-12T22:15:23.171Z,52.20
2023-01-12T22:17:51.510Z,37.60
2023-01-12T22:20:18.526Z,51.40
2023-01-12T22:22:45.624Z,39.50
2023-01-12T22:25:13.640Z,43.00
2023-01-12T22:27:43.449Z,46.10
2023-01-12T22:30:13.127Z,40.80
2023-01-12T22:32:41.528Z,60.30
2023-01-12T22:35:08.909Z,53.10
2023-01-12T22:37:36.656Z,49.30
2023-01-12T22:40:05.215Z,40.70
2023-01-12T22:42:50.832Z,64.20
2023-01-12T22:45:17.860Z,59.00
2023-01-12T22:47:48.613Z,68.20
2023-01-12T22:50:15.934Z,62.10
2023-01-12T22:52:42.784Z,70.40
2023-01-12T22:55:09.754Z,95.20
2023-01-12T22:57:36.656Z,104.00
2023-01-12T23:00:04.644Z,85.80
2023-01-12T23:02:50.372Z,67.50
2023-01-12T23:05:17.917Z,87.80
2023-01-12T23:07:44.855Z,76.20
2023-01-12T23:10:11.697Z,77.80
2023-01-12T23:12:38.921Z,63.40
2023-01-12T23:15:06.852Z,65.70
2023-01-12T23:17:33.743Z,72.30
2023-01-12T23:20:00.639Z,70.60
2023-01-12T23:22:30.562Z,67.30
2023-01-12T23:27:24.139Z,51.80
2023-01-12T23:29:51.063Z,58.00
2023-01-12T23:32:18.228Z,49.30
2023-01-12T23:34:45.058Z,59.80
2023-01-12T23:37:11.919Z,59.60
2023-01-12T23:39:38.763Z,53.20
2023-01-12T23:42:05.696Z,42.00
2023-01-12T23:44:32.606Z,60.80
2023-01-12T23:47:03.073Z,58.90
2023-01-12T23:49:29.904Z,49.80
2023-01-12T23:51:56.755Z,74.30
2023-01-12T23:54:23.577Z,54.20
2023-01-12T23:56:52.430Z,59.00
2023-01-12T23:59:19.646Z,66.60
